OCN6L EDDM-LEMH
Flight info
| Callsign | OCN6L |
|---|---|
| Flight time | 1h 43m |
| Altitude | 37000 |
| Route | TURBU7N TURBU Y107 TOBSO DCT BAKOR DCT SUMIR DCT PIDAD DCT TALEP DCT RARQU DCT BALEN UT250 RIXOT |
| Aircraft | A320/M-SDE3FGHIRWY/LB1 |
Departure
| Time | 2026-04-16 13:28 |
|---|---|
| Airport | Munich Airport (EDDM) |
Arrival
| Time | 2026-04-16 15:11 |
|---|---|
| Airport | Menorca Airport (LEMH) |
| Time | Latitude | Longitude | Altitude | Speed | Heading |
|---|---|---|---|---|---|
| 2026-04-16 12:49 | 48.35637 | 11.79970 | 1462 ft | 0 kts | 264° |
| 2026-04-16 13:12 | 48.35639 | 11.79995 | 1466 ft | 4 kts | 268° |
| 2026-04-16 13:12 | 48.35638 | 11.80035 | 1461 ft | 4 kts | 284° |
| 2026-04-16 13:13 | 48.35627 | 11.80069 | 1461 ft | 4 kts | 324° |
| 2026-04-16 13:13 | 48.35615 | 11.80078 | 1458 ft | 1 kts | 354° |
| 2026-04-16 13:13 | 48.35613 | 11.80078 | 1458 ft | 0 kts | 354° |
| 2026-04-16 13:18 | 48.35615 | 11.80078 | 1457 ft | 2 kts | 353° |
| 2026-04-16 13:18 | 48.35643 | 11.80073 | 1463 ft | 4 kts | 353° |
| 2026-04-16 13:18 | 48.35666 | 11.80073 | 1467 ft | 2 kts | 4° |
| 2026-04-16 13:18 | 48.35695 | 11.80077 | 1464 ft | 9 kts | 5° |
| 2026-04-16 13:19 | 48.35755 | 11.80071 | 1465 ft | 8 kts | 349° |
| 2026-04-16 13:19 | 48.35800 | 11.80054 | 1464 ft | 6 kts | 337° |
| 2026-04-16 13:19 | 48.35828 | 11.80022 | 1467 ft | 4 kts | 313° |
| 2026-04-16 13:19 | 48.35847 | 11.79961 | 1466 ft | 9 kts | 281° |
| 2026-04-16 13:20 | 48.35841 | 11.79848 | 1467 ft | 12 kts | 263° |
| 2026-04-16 13:20 | 48.35831 | 11.79720 | 1464 ft | 13 kts | 263° |
| 2026-04-16 13:20 | 48.35820 | 11.79578 | 1467 ft | 14 kts | 263° |
| 2026-04-16 13:20 | 48.35860 | 11.79511 | 1467 ft | 10 kts | 4° |
| 2026-04-16 13:21 | 48.35921 | 11.79513 | 1460 ft | 8 kts | 356° |
| 2026-04-16 13:21 | 48.35969 | 11.79507 | 1461 ft | 6 kts | 354° |
| 2026-04-16 13:21 | 48.36016 | 11.79498 | 1467 ft | 11 kts | 353° |
| 2026-04-16 13:21 | 48.36100 | 11.79519 | 1459 ft | 12 kts | 44° |
| 2026-04-16 13:22 | 48.36115 | 11.79628 | 1468 ft | 10 kts | 83° |
| 2026-04-16 13:22 | 48.36123 | 11.79721 | 1458 ft | 8 kts | 82° |
| 2026-04-16 13:22 | 48.36129 | 11.79811 | 1468 ft | 13 kts | 85° |
| 2026-04-16 13:22 | 48.36140 | 11.79943 | 1462 ft | 12 kts | 83° |
| 2026-04-16 13:23 | 48.36150 | 11.80060 | 1457 ft | 10 kts | 84° |
| 2026-04-16 13:23 | 48.36158 | 11.80192 | 1468 ft | 17 kts | 84° |
| 2026-04-16 13:23 | 48.36173 | 11.80397 | 1468 ft | 21 kts | 84° |
| 2026-04-16 13:23 | 48.36191 | 11.80609 | 1467 ft | 20 kts | 83° |
| 2026-04-16 13:24 | 48.36206 | 11.80814 | 1467 ft | 20 kts | 83° |
| 2026-04-16 13:24 | 48.36222 | 11.81022 | 1458 ft | 20 kts | 83° |
| 2026-04-16 13:24 | 48.36238 | 11.81229 | 1458 ft | 20 kts | 83° |
| 2026-04-16 13:24 | 48.36255 | 11.81440 | 1467 ft | 21 kts | 83° |
| 2026-04-16 13:25 | 48.36273 | 11.81662 | 1466 ft | 22 kts | 83° |
| 2026-04-16 13:25 | 48.36294 | 11.81894 | 1463 ft | 22 kts | 66° |
| 2026-04-16 13:25 | 48.36392 | 11.82014 | 1462 ft | 16 kts | 15° |
| 2026-04-16 13:25 | 48.36487 | 11.82008 | 1466 ft | 13 kts | 350° |
| 2026-04-16 13:26 | 48.36582 | 11.81985 | 1460 ft | 14 kts | 352° |
| 2026-04-16 13:26 | 48.36664 | 11.81970 | 1465 ft | 7 kts | 351° |
| 2026-04-16 13:26 | 48.36674 | 11.81929 | 1462 ft | 0 kts | 265° |
| 2026-04-16 13:27 | 48.36651 | 11.81599 | 1463 ft | 68 kts | 264° |
| 2026-04-16 13:27 | 48.36574 | 11.80572 | 1468 ft | 127 kts | 262° |
| 2026-04-16 13:27 | 48.36458 | 11.79011 | 1493 ft | 170 kts | 264° |
| 2026-04-16 13:28 | 48.36328 | 11.77283 | 2203 ft | 164 kts | 263° |
| 2026-04-16 13:28 | 48.36180 | 11.75559 | 2857 ft | 171 kts | 264° |
| 2026-04-16 13:28 | 48.36075 | 11.74307 | 3087 ft | 184 kts | 264° |
| 2026-04-16 13:28 | 48.35878 | 11.72314 | 3431 ft | 204 kts | 254° |
| 2026-04-16 13:29 | 48.34976 | 11.70617 | 3928 ft | 220 kts | 209° |
| 2026-04-16 13:29 | 48.33496 | 11.70085 | 4680 ft | 226 kts | 185° |
| 2026-04-16 13:29 | 48.31916 | 11.70120 | 5440 ft | 229 kts | 179° |
| 2026-04-16 13:29 | 48.30312 | 11.70287 | 6185 ft | 232 kts | 178° |
| 2026-04-16 13:30 | 48.28730 | 11.70824 | 6891 ft | 238 kts | 157° |
| 2026-04-16 13:30 | 48.27269 | 11.72187 | 7278 ft | 261 kts | 143° |
| 2026-04-16 13:30 | 48.25746 | 11.73886 | 7684 ft | 281 kts | 145° |
| 2026-04-16 13:30 | 48.24113 | 11.75585 | 8422 ft | 288 kts | 146° |
| 2026-04-16 13:31 | 48.22439 | 11.77275 | 9218 ft | 292 kts | 147° |
| 2026-04-16 13:31 | 48.20731 | 11.78982 | 10007 ft | 297 kts | 147° |
| 2026-04-16 13:31 | 48.19007 | 11.80704 | 10751 ft | 299 kts | 148° |
| 2026-04-16 13:31 | 48.17141 | 11.82130 | 11382 ft | 307 kts | 161° |
| 2026-04-16 13:32 | 48.15045 | 11.83192 | 11587 ft | 330 kts | 163° |
| 2026-04-16 13:32 | 48.12806 | 11.84291 | 12009 ft | 344 kts | 163° |
| 2026-04-16 13:32 | 48.10510 | 11.85414 | 12683 ft | 349 kts | 163° |
| 2026-04-16 13:32 | 48.08186 | 11.86555 | 13392 ft | 353 kts | 163° |
| 2026-04-16 13:33 | 48.05842 | 11.87715 | 14077 ft | 357 kts | 163° |
| 2026-04-16 13:33 | 48.03474 | 11.88894 | 14663 ft | 360 kts | 163° |
| 2026-04-16 13:33 | 48.01081 | 11.90083 | 15247 ft | 364 kts | 163° |
| 2026-04-16 13:33 | 47.98662 | 11.91281 | 15831 ft | 368 kts | 163° |
| 2026-04-16 13:34 | 47.96213 | 11.92491 | 16403 ft | 372 kts | 163° |
| 2026-04-16 13:34 | 47.93741 | 11.93709 | 16984 ft | 376 kts | 164° |
| 2026-04-16 13:34 | 47.91222 | 11.94610 | 17525 ft | 378 kts | 174° |
| 2026-04-16 13:34 | 47.88594 | 11.94829 | 18074 ft | 380 kts | 183° |
| 2026-04-16 13:35 | 47.85932 | 11.94776 | 18625 ft | 384 kts | 183° |
| 2026-04-16 13:35 | 47.83243 | 11.94722 | 19118 ft | 387 kts | 183° |
| 2026-04-16 13:35 | 47.80539 | 11.94667 | 19605 ft | 390 kts | 183° |
| 2026-04-16 13:35 | 47.77811 | 11.94614 | 20097 ft | 394 kts | 183° |
| 2026-04-16 13:36 | 47.75059 | 11.94562 | 20586 ft | 397 kts | 183° |
| 2026-04-16 13:36 | 47.72289 | 11.94512 | 21078 ft | 400 kts | 183° |
| 2026-04-16 13:36 | 47.69496 | 11.94459 | 21550 ft | 402 kts | 184° |
| 2026-04-16 13:36 | 47.66685 | 11.94406 | 21974 ft | 405 kts | 183° |
| 2026-04-16 13:37 | 47.63854 | 11.94355 | 22429 ft | 408 kts | 183° |
| 2026-04-16 13:37 | 47.61004 | 11.94306 | 22900 ft | 410 kts | 184° |
| 2026-04-16 13:37 | 47.58138 | 11.94258 | 23321 ft | 413 kts | 183° |
| 2026-04-16 13:37 | 47.55249 | 11.94211 | 23772 ft | 416 kts | 183° |
| 2026-04-16 13:38 | 47.52382 | 11.94162 | 24153 ft | 419 kts | 183° |
| 2026-04-16 13:38 | 47.49426 | 11.94111 | 24540 ft | 421 kts | 183° |
| 2026-04-16 13:38 | 47.46525 | 11.94061 | 24905 ft | 423 kts | 183° |
| 2026-04-16 13:38 | 47.43576 | 11.93996 | 25277 ft | 424 kts | 186° |
| 2026-04-16 13:39 | 47.40637 | 11.93529 | 25642 ft | 424 kts | 191° |
| 2026-04-16 13:39 | 47.37706 | 11.92944 | 26001 ft | 426 kts | 191° |
| 2026-04-16 13:39 | 47.34760 | 11.92353 | 26349 ft | 428 kts | 191° |
| 2026-04-16 13:39 | 47.31799 | 11.91760 | 26713 ft | 430 kts | 191° |
| 2026-04-16 13:40 | 47.28831 | 11.91165 | 27073 ft | 432 kts | 191° |
| 2026-04-16 13:40 | 47.25847 | 11.90564 | 27421 ft | 434 kts | 191° |
| 2026-04-16 13:40 | 47.22845 | 11.89961 | 27779 ft | 436 kts | 191° |
| 2026-04-16 13:40 | 47.19830 | 11.89359 | 28130 ft | 438 kts | 191° |
| 2026-04-16 13:41 | 47.16803 | 11.88757 | 28477 ft | 440 kts | 191° |
| 2026-04-16 13:41 | 47.13758 | 11.88154 | 28835 ft | 442 kts | 191° |
| 2026-04-16 13:41 | 47.10707 | 11.87552 | 29178 ft | 444 kts | 191° |
| 2026-04-16 13:41 | 47.07639 | 11.86948 | 29472 ft | 446 kts | 191° |
| 2026-04-16 13:42 | 47.04544 | 11.86334 | 29814 ft | 448 kts | 191° |
| 2026-04-16 13:42 | 47.01454 | 11.85709 | 30106 ft | 449 kts | 192° |
| 2026-04-16 13:42 | 46.98367 | 11.84937 | 30402 ft | 450 kts | 194° |
| 2026-04-16 13:42 | 46.95300 | 11.84006 | 30676 ft | 450 kts | 195° |
| 2026-04-16 13:43 | 46.92251 | 11.82975 | 30916 ft | 451 kts | 196° |
| 2026-04-16 13:43 | 46.89196 | 11.81907 | 31174 ft | 452 kts | 197° |
| 2026-04-16 13:43 | 46.86140 | 11.80852 | 31508 ft | 451 kts | 196° |
| 2026-04-16 13:43 | 46.83091 | 11.79837 | 31887 ft | 449 kts | 195° |
| 2026-04-16 13:44 | 46.80048 | 11.78860 | 32283 ft | 447 kts | 195° |
| 2026-04-16 13:44 | 46.77014 | 11.77906 | 32654 ft | 445 kts | 195° |
| 2026-04-16 13:44 | 46.73995 | 11.76968 | 33045 ft | 443 kts | 195° |
| 2026-04-16 13:44 | 46.70988 | 11.76039 | 33433 ft | 441 kts | 195° |
| 2026-04-16 13:45 | 46.67991 | 11.75110 | 33800 ft | 439 kts | 195° |
| 2026-04-16 13:45 | 46.65011 | 11.74178 | 34179 ft | 437 kts | 195° |
| 2026-04-16 13:45 | 46.62109 | 11.72960 | 34483 ft | 432 kts | 204° |
| 2026-04-16 13:45 | 46.59407 | 11.71104 | 34711 ft | 428 kts | 213° |
| 2026-04-16 13:46 | 46.56950 | 11.68701 | 34936 ft | 425 kts | 219° |
| 2026-04-16 13:46 | 46.54563 | 11.66153 | 35107 ft | 427 kts | 219° |
| 2026-04-16 13:46 | 46.52168 | 11.63609 | 35315 ft | 427 kts | 219° |
| 2026-04-16 13:46 | 46.49767 | 11.61070 | 35552 ft | 427 kts | 219° |
| 2026-04-16 13:47 | 46.47364 | 11.58538 | 35765 ft | 427 kts | 219° |
| 2026-04-16 13:47 | 46.44960 | 11.56007 | 35984 ft | 427 kts | 219° |
| 2026-04-16 13:47 | 46.42556 | 11.53476 | 36192 ft | 427 kts | 219° |
| 2026-04-16 13:47 | 46.40152 | 11.50943 | 36425 ft | 427 kts | 219° |
| 2026-04-16 13:48 | 46.37750 | 11.48413 | 36616 ft | 427 kts | 218° |
| 2026-04-16 13:48 | 46.35345 | 11.45881 | 36805 ft | 427 kts | 218° |
| 2026-04-16 13:48 | 46.32943 | 11.43355 | 36980 ft | 427 kts | 218° |
| 2026-04-16 13:48 | 46.30538 | 11.40833 | 37098 ft | 427 kts | 218° |
| 2026-04-16 13:49 | 46.28122 | 11.38306 | 37113 ft | 427 kts | 218° |
| 2026-04-16 13:49 | 46.23309 | 11.33275 | 37113 ft | 426 kts | 219° |
| 2026-04-16 13:50 | 46.18540 | 11.28199 | 37110 ft | 425 kts | 219° |
| 2026-04-16 13:50 | 46.13784 | 11.23108 | 37217 ft | 426 kts | 219° |
| 2026-04-16 13:51 | 46.09017 | 11.18035 | 37195 ft | 426 kts | 219° |
| 2026-04-16 13:51 | 46.04263 | 11.13011 | 37161 ft | 427 kts | 219° |
| 2026-04-16 13:52 | 45.99464 | 11.07956 | 37113 ft | 427 kts | 219° |
| 2026-04-16 13:52 | 45.94657 | 11.02898 | 37108 ft | 429 kts | 219° |
| 2026-04-16 13:53 | 45.89825 | 10.97817 | 37108 ft | 429 kts | 219° |
| 2026-04-16 13:53 | 45.84992 | 10.92755 | 37126 ft | 430 kts | 219° |
| 2026-04-16 13:54 | 45.80146 | 10.87697 | 37130 ft | 430 kts | 218° |
| 2026-04-16 13:54 | 45.75311 | 10.82644 | 37140 ft | 430 kts | 218° |
| 2026-04-16 13:55 | 45.70472 | 10.77608 | 37136 ft | 430 kts | 218° |
| 2026-04-16 13:55 | 45.65634 | 10.72580 | 37137 ft | 430 kts | 218° |
| 2026-04-16 13:56 | 45.60798 | 10.67548 | 37138 ft | 430 kts | 218° |
| 2026-04-16 13:56 | 45.55954 | 10.62540 | 37138 ft | 430 kts | 218° |
| 2026-04-16 13:57 | 45.51106 | 10.57538 | 37140 ft | 430 kts | 218° |
| 2026-04-16 13:57 | 45.46282 | 10.52579 | 37131 ft | 431 kts | 218° |
| 2026-04-16 13:58 | 45.38970 | 10.45079 | 37126 ft | 433 kts | 218° |
| 2026-04-16 13:58 | 45.34079 | 10.40066 | 37127 ft | 434 kts | 218° |
| 2026-04-16 13:59 | 45.29171 | 10.35042 | 37119 ft | 434 kts | 218° |
| 2026-04-16 13:59 | 45.24260 | 10.30034 | 37141 ft | 434 kts | 218° |
| 2026-04-16 14:00 | 45.19347 | 10.25032 | 37147 ft | 434 kts | 218° |
| 2026-04-16 14:00 | 45.14437 | 10.20039 | 37161 ft | 434 kts | 218° |
| 2026-04-16 14:01 | 45.09525 | 10.15066 | 37144 ft | 434 kts | 218° |
| 2026-04-16 14:01 | 45.04603 | 10.10094 | 37147 ft | 434 kts | 218° |
| 2026-04-16 14:02 | 44.99680 | 10.05139 | 37155 ft | 435 kts | 218° |
| 2026-04-16 14:02 | 44.94787 | 10.00207 | 37139 ft | 435 kts | 218° |
| 2026-04-16 14:03 | 44.89863 | 9.95249 | 37133 ft | 435 kts | 217° |
| 2026-04-16 14:03 | 44.84931 | 9.90300 | 37108 ft | 436 kts | 218° |
| 2026-04-16 14:04 | 44.79986 | 9.85343 | 37107 ft | 437 kts | 217° |
| 2026-04-16 14:04 | 44.75016 | 9.80396 | 37114 ft | 437 kts | 217° |
| 2026-04-16 14:05 | 44.70047 | 9.75453 | 37117 ft | 438 kts | 217° |
| 2026-04-16 14:05 | 44.65068 | 9.70501 | 37122 ft | 438 kts | 217° |
| 2026-04-16 14:06 | 44.60087 | 9.65569 | 37127 ft | 438 kts | 217° |
| 2026-04-16 14:06 | 44.55107 | 9.60640 | 37128 ft | 438 kts | 217° |
| 2026-04-16 14:07 | 44.50123 | 9.55718 | 37136 ft | 438 kts | 217° |
| 2026-04-16 14:07 | 44.45137 | 9.50813 | 37137 ft | 438 kts | 217° |
| 2026-04-16 14:08 | 44.40150 | 9.45912 | 37128 ft | 438 kts | 217° |
| 2026-04-16 14:08 | 44.35161 | 9.41004 | 37112 ft | 439 kts | 217° |
| 2026-04-16 14:09 | 44.30158 | 9.36099 | 37110 ft | 440 kts | 217° |
| 2026-04-16 14:09 | 44.25975 | 9.32011 | 37112 ft | 441 kts | 217° |
| 2026-04-16 14:10 | 44.20944 | 9.27105 | 37118 ft | 441 kts | 217° |
| 2026-04-16 14:10 | 44.15913 | 9.22202 | 37125 ft | 441 kts | 217° |
| 2026-04-16 14:11 | 44.10878 | 9.17319 | 37131 ft | 441 kts | 217° |
| 2026-04-16 14:11 | 44.05842 | 9.12446 | 37132 ft | 441 kts | 217° |
| 2026-04-16 14:12 | 44.00808 | 9.07583 | 37122 ft | 441 kts | 217° |
| 2026-04-16 14:12 | 43.95768 | 9.02711 | 37111 ft | 442 kts | 217° |
| 2026-04-16 14:13 | 43.90719 | 8.97840 | 37109 ft | 442 kts | 217° |
| 2026-04-16 14:13 | 43.85654 | 8.92981 | 37116 ft | 443 kts | 217° |
| 2026-04-16 14:14 | 43.80621 | 8.88159 | 37123 ft | 443 kts | 217° |
| 2026-04-16 14:14 | 43.75546 | 8.83298 | 37125 ft | 443 kts | 217° |
| 2026-04-16 14:15 | 43.70479 | 8.78461 | 37132 ft | 443 kts | 217° |
| 2026-04-16 14:15 | 43.65307 | 8.73850 | 37123 ft | 444 kts | 207° |
| 2026-04-16 14:16 | 43.59392 | 8.71400 | 37122 ft | 447 kts | 187° |
| 2026-04-16 14:16 | 43.53186 | 8.70784 | 37103 ft | 446 kts | 199° |
| 2026-04-16 14:17 | 43.50386 | 8.69048 | 37106 ft | 441 kts | 213° |
| 2026-04-16 14:17 | 43.47824 | 8.66724 | 37101 ft | 441 kts | 214° |
| 2026-04-16 14:17 | 43.42420 | 8.62651 | 37105 ft | 443 kts | 210° |
| 2026-04-16 14:18 | 43.36974 | 8.58649 | 37104 ft | 444 kts | 210° |
| 2026-04-16 14:18 | 43.34331 | 8.56480 | 37099 ft | 442 kts | 221° |
| 2026-04-16 14:18 | 43.32012 | 8.53709 | 37106 ft | 440 kts | 224° |
| 2026-04-16 14:19 | 43.27456 | 8.48077 | 37108 ft | 441 kts | 224° |
| 2026-04-16 14:19 | 43.22899 | 8.42441 | 37116 ft | 441 kts | 224° |
| 2026-04-16 14:20 | 43.18322 | 8.36820 | 37122 ft | 442 kts | 224° |
| 2026-04-16 14:20 | 43.13737 | 8.31218 | 37114 ft | 442 kts | 224° |
| 2026-04-16 14:21 | 43.09137 | 8.25606 | 37110 ft | 443 kts | 224° |
| 2026-04-16 14:21 | 43.04562 | 8.20010 | 37112 ft | 443 kts | 224° |
| 2026-04-16 14:22 | 42.99957 | 8.14401 | 37113 ft | 443 kts | 223° |
| 2026-04-16 14:22 | 42.95338 | 8.08809 | 37116 ft | 444 kts | 223° |
| 2026-04-16 14:23 | 42.90715 | 8.03222 | 37127 ft | 444 kts | 223° |
| 2026-04-16 14:23 | 42.86095 | 7.97636 | 37128 ft | 444 kts | 223° |
| 2026-04-16 14:24 | 42.81469 | 7.92049 | 37108 ft | 445 kts | 223° |
| 2026-04-16 14:24 | 42.76828 | 7.86461 | 37112 ft | 446 kts | 223° |
| 2026-04-16 14:25 | 42.72181 | 7.80864 | 37116 ft | 446 kts | 223° |
| 2026-04-16 14:25 | 42.67524 | 7.75286 | 37124 ft | 446 kts | 223° |
| 2026-04-16 14:26 | 42.62862 | 7.69724 | 37127 ft | 446 kts | 223° |
| 2026-04-16 14:26 | 42.58204 | 7.64165 | 37129 ft | 446 kts | 223° |
| 2026-04-16 14:27 | 42.53543 | 7.58618 | 37121 ft | 446 kts | 223° |
| 2026-04-16 14:27 | 42.48869 | 7.53060 | 37111 ft | 447 kts | 223° |
| 2026-04-16 14:28 | 42.44183 | 7.47499 | 37110 ft | 448 kts | 223° |
| 2026-04-16 14:28 | 42.39481 | 7.41929 | 37109 ft | 449 kts | 223° |
| 2026-04-16 14:29 | 42.34776 | 7.36369 | 37121 ft | 449 kts | 223° |
| 2026-04-16 14:29 | 42.30076 | 7.30828 | 37124 ft | 448 kts | 223° |
| 2026-04-16 14:30 | 42.25375 | 7.25300 | 37133 ft | 448 kts | 223° |
| 2026-04-16 14:30 | 42.20698 | 7.19815 | 37133 ft | 448 kts | 223° |
| 2026-04-16 14:31 | 42.16000 | 7.14307 | 37142 ft | 448 kts | 223° |
| 2026-04-16 14:31 | 42.11295 | 7.08802 | 37139 ft | 448 kts | 223° |
| 2026-04-16 14:32 | 42.06591 | 7.03313 | 37142 ft | 447 kts | 223° |
| 2026-04-16 14:32 | 42.01880 | 6.97837 | 37142 ft | 447 kts | 223° |
| 2026-04-16 14:33 | 41.97248 | 6.92254 | 37141 ft | 447 kts | 224° |
| 2026-04-16 14:33 | 41.92689 | 6.86565 | 37142 ft | 447 kts | 225° |
| 2026-04-16 14:34 | 41.88118 | 6.80910 | 37118 ft | 447 kts | 224° |
| 2026-04-16 14:34 | 41.83517 | 6.75293 | 37118 ft | 448 kts | 224° |
| 2026-04-16 14:35 | 41.78899 | 6.69686 | 37119 ft | 448 kts | 224° |
| 2026-04-16 14:35 | 41.74282 | 6.64079 | 37131 ft | 448 kts | 224° |
| 2026-04-16 14:36 | 41.69660 | 6.58468 | 37130 ft | 448 kts | 224° |
| 2026-04-16 14:36 | 41.65072 | 6.52905 | 37137 ft | 448 kts | 224° |
| 2026-04-16 14:37 | 41.60451 | 6.47305 | 37141 ft | 448 kts | 224° |
| 2026-04-16 14:37 | 41.55817 | 6.41730 | 37120 ft | 449 kts | 224° |
| 2026-04-16 14:38 | 41.51172 | 6.36149 | 37123 ft | 449 kts | 224° |
| 2026-04-16 14:38 | 41.46531 | 6.30555 | 37126 ft | 450 kts | 224° |
| 2026-04-16 14:39 | 41.41878 | 6.24968 | 37124 ft | 450 kts | 224° |
| 2026-04-16 14:39 | 41.37215 | 6.19402 | 37136 ft | 450 kts | 224° |
| 2026-04-16 14:40 | 41.32552 | 6.13838 | 37141 ft | 449 kts | 224° |
| 2026-04-16 14:40 | 41.27901 | 6.08287 | 37128 ft | 449 kts | 224° |
| 2026-04-16 14:41 | 41.23238 | 6.02748 | 37122 ft | 450 kts | 224° |
| 2026-04-16 14:41 | 41.18552 | 5.97201 | 37129 ft | 451 kts | 224° |
| 2026-04-16 14:42 | 41.13872 | 5.91660 | 37140 ft | 451 kts | 224° |
| 2026-04-16 14:42 | 41.09197 | 5.86114 | 37143 ft | 451 kts | 224° |
| 2026-04-16 14:43 | 41.04516 | 5.80572 | 36997 ft | 452 kts | 224° |
| 2026-04-16 14:43 | 41.02201 | 5.77844 | 36732 ft | 451 kts | 224° |
| 2026-04-16 14:43 | 40.99860 | 5.75093 | 36188 ft | 449 kts | 224° |
| 2026-04-16 14:44 | 40.97528 | 5.72359 | 35655 ft | 446 kts | 223° |
| 2026-04-16 14:44 | 40.95257 | 5.69589 | 35126 ft | 442 kts | 229° |
| 2026-04-16 14:44 | 40.93312 | 5.66480 | 34624 ft | 436 kts | 237° |
| 2026-04-16 14:44 | 40.91570 | 5.63200 | 34125 ft | 434 kts | 237° |
| 2026-04-16 14:45 | 40.89832 | 5.59944 | 33586 ft | 431 kts | 237° |
| 2026-04-16 14:45 | 40.88106 | 5.56728 | 33090 ft | 427 kts | 237° |
| 2026-04-16 14:45 | 40.86388 | 5.53540 | 32618 ft | 424 kts | 237° |
| 2026-04-16 14:45 | 40.84686 | 5.50387 | 32136 ft | 420 kts | 237° |
| 2026-04-16 14:46 | 40.83001 | 5.47256 | 31668 ft | 417 kts | 237° |
| 2026-04-16 14:46 | 40.81332 | 5.44144 | 31193 ft | 414 kts | 237° |
| 2026-04-16 14:46 | 40.79669 | 5.41049 | 30732 ft | 411 kts | 237° |
| 2026-04-16 14:46 | 40.78023 | 5.37991 | 30279 ft | 408 kts | 237° |
| 2026-04-16 14:47 | 40.76382 | 5.34952 | 29787 ft | 404 kts | 237° |
| 2026-04-16 14:47 | 40.74760 | 5.31954 | 29356 ft | 399 kts | 237° |
| 2026-04-16 14:47 | 40.73158 | 5.28998 | 28941 ft | 394 kts | 237° |
| 2026-04-16 14:47 | 40.71578 | 5.26076 | 28531 ft | 389 kts | 237° |
| 2026-04-16 14:48 | 40.70020 | 5.23193 | 28123 ft | 384 kts | 237° |
| 2026-04-16 14:48 | 40.68474 | 5.20338 | 27715 ft | 380 kts | 237° |
| 2026-04-16 14:48 | 40.66962 | 5.17554 | 27313 ft | 377 kts | 237° |
| 2026-04-16 14:48 | 40.65442 | 5.14758 | 26915 ft | 374 kts | 237° |
| 2026-04-16 14:49 | 40.63936 | 5.11987 | 26504 ft | 371 kts | 237° |
| 2026-04-16 14:49 | 40.62441 | 5.09237 | 26097 ft | 368 kts | 237° |
| 2026-04-16 14:49 | 40.60951 | 5.06497 | 25671 ft | 366 kts | 237° |
| 2026-04-16 14:49 | 40.59473 | 5.03780 | 25243 ft | 365 kts | 237° |
| 2026-04-16 14:50 | 40.57997 | 5.01070 | 24813 ft | 363 kts | 237° |
| 2026-04-16 14:50 | 40.56524 | 4.98374 | 24374 ft | 363 kts | 237° |
| 2026-04-16 14:50 | 40.55050 | 4.95681 | 23929 ft | 362 kts | 237° |
| 2026-04-16 14:50 | 40.53575 | 4.92992 | 23450 ft | 362 kts | 237° |
| 2026-04-16 14:51 | 40.52107 | 4.90319 | 23004 ft | 360 kts | 237° |
| 2026-04-16 14:51 | 40.50650 | 4.87665 | 22585 ft | 357 kts | 237° |
| 2026-04-16 14:51 | 40.49199 | 4.85019 | 22147 ft | 355 kts | 237° |
| 2026-04-16 14:51 | 40.47762 | 4.82398 | 21723 ft | 353 kts | 237° |
| 2026-04-16 14:53 | 40.37900 | 4.65642 | 18965 ft | 350 kts | 218° |
| 2026-04-16 14:53 | 40.35877 | 4.63867 | 18569 ft | 350 kts | 215° |
| 2026-04-16 14:54 | 40.33838 | 4.62121 | 18133 ft | 349 kts | 215° |
| 2026-04-16 14:54 | 40.31809 | 4.60383 | 17740 ft | 347 kts | 215° |
| 2026-04-16 14:54 | 40.29792 | 4.58651 | 17337 ft | 346 kts | 215° |
| 2026-04-16 14:54 | 40.27785 | 4.56929 | 16934 ft | 344 kts | 215° |
| 2026-04-16 14:55 | 40.25782 | 4.55216 | 16552 ft | 343 kts | 215° |
| 2026-04-16 14:55 | 40.23788 | 4.53506 | 16157 ft | 342 kts | 215° |
| 2026-04-16 14:55 | 40.21802 | 4.51800 | 15773 ft | 341 kts | 215° |
| 2026-04-16 14:55 | 40.19819 | 4.50097 | 15383 ft | 341 kts | 215° |
| 2026-04-16 14:56 | 40.17836 | 4.48400 | 15002 ft | 340 kts | 215° |
| 2026-04-16 14:56 | 40.15855 | 4.46711 | 14609 ft | 340 kts | 214° |
| 2026-04-16 14:56 | 40.13874 | 4.45024 | 14222 ft | 340 kts | 214° |
| 2026-04-16 14:56 | 40.11894 | 4.43334 | 13804 ft | 340 kts | 214° |
| 2026-04-16 14:57 | 40.09920 | 4.41648 | 13418 ft | 338 kts | 214° |
| 2026-04-16 14:57 | 40.07934 | 4.40026 | 13030 ft | 336 kts | 207° |
| 2026-04-16 14:57 | 40.05687 | 4.39255 | 12566 ft | 337 kts | 181° |
| 2026-04-16 14:57 | 40.03407 | 4.39860 | 12077 ft | 333 kts | 153° |
| 2026-04-16 14:58 | 40.01597 | 4.41581 | 11718 ft | 316 kts | 135° |
| 2026-04-16 14:58 | 39.98282 | 4.45095 | 10987 ft | 300 kts | 145° |
| 2026-04-16 14:58 | 39.96500 | 4.46500 | 10636 ft | 299 kts | 151° |
| 2026-04-16 14:59 | 39.94617 | 4.47658 | 10282 ft | 299 kts | 158° |
| 2026-04-16 14:59 | 39.92658 | 4.48563 | 9900 ft | 299 kts | 163° |
| 2026-04-16 14:59 | 39.90646 | 4.49220 | 9546 ft | 298 kts | 169° |
| 2026-04-16 14:59 | 39.88605 | 4.49623 | 9191 ft | 295 kts | 175° |
| 2026-04-16 15:00 | 39.86561 | 4.49768 | 8843 ft | 293 kts | 180° |
| 2026-04-16 15:00 | 39.84542 | 4.49663 | 8495 ft | 286 kts | 186° |
| 2026-04-16 15:00 | 39.82606 | 4.49324 | 8168 ft | 275 kts | 192° |
| 2026-04-16 15:00 | 39.80737 | 4.48820 | 7855 ft | 273 kts | 196° |
| 2026-04-16 15:01 | 39.78927 | 4.48130 | 7544 ft | 270 kts | 202° |
| 2026-04-16 15:01 | 39.77194 | 4.47218 | 7233 ft | 267 kts | 208° |
| 2026-04-16 15:01 | 39.75573 | 4.46125 | 6926 ft | 256 kts | 213° |
| 2026-04-16 15:01 | 39.74105 | 4.44920 | 6637 ft | 243 kts | 218° |
| 2026-04-16 15:02 | 39.72774 | 4.43635 | 6262 ft | 236 kts | 223° |
| 2026-04-16 15:02 | 39.71559 | 4.42265 | 5920 ft | 227 kts | 227° |
| 2026-04-16 15:02 | 39.70464 | 4.40828 | 5648 ft | 223 kts | 232° |
| 2026-04-16 15:02 | 39.69457 | 4.39302 | 5386 ft | 222 kts | 236° |
| 2026-04-16 15:03 | 39.68538 | 4.37700 | 5128 ft | 220 kts | 240° |
| 2026-04-16 15:03 | 39.67716 | 4.36034 | 4873 ft | 218 kts | 244° |
| 2026-04-16 15:03 | 39.66992 | 4.34313 | 4608 ft | 215 kts | 249° |
| 2026-04-16 15:03 | 39.66379 | 4.32583 | 4353 ft | 206 kts | 252° |
| 2026-04-16 15:04 | 39.65873 | 4.30881 | 4126 ft | 198 kts | 256° |
| 2026-04-16 15:04 | 39.65476 | 4.29229 | 3906 ft | 192 kts | 260° |
| 2026-04-16 15:04 | 39.65162 | 4.27557 | 3704 ft | 190 kts | 264° |
| 2026-04-16 15:04 | 39.64927 | 4.25881 | 3517 ft | 188 kts | 267° |
| 2026-04-16 15:05 | 39.64765 | 4.24212 | 3400 ft | 186 kts | 270° |
| 2026-04-16 15:05 | 39.64680 | 4.22534 | 3320 ft | 186 kts | 274° |
| 2026-04-16 15:05 | 39.64697 | 4.20861 | 3231 ft | 183 kts | 284° |
| 2026-04-16 15:05 | 39.65206 | 4.19419 | 3155 ft | 174 kts | 315° |
| 2026-04-16 15:06 | 39.66169 | 4.18484 | 3073 ft | 174 kts | 336° |
| 2026-04-16 15:06 | 39.67334 | 4.18086 | 2998 ft | 174 kts | 356° |
| 2026-04-16 15:06 | 39.68544 | 4.18233 | 2922 ft | 174 kts | 8° |
| 2026-04-16 15:06 | 39.69740 | 4.18479 | 2837 ft | 174 kts | 8° |
| 2026-04-16 15:07 | 39.70935 | 4.18724 | 2755 ft | 174 kts | 8° |
| 2026-04-16 15:07 | 39.72115 | 4.18965 | 2655 ft | 173 kts | 8° |
| 2026-04-16 15:07 | 39.73325 | 4.19213 | 2562 ft | 174 kts | 8° |
| 2026-04-16 15:07 | 39.74481 | 4.19450 | 2377 ft | 162 kts | 7° |
| 2026-04-16 15:08 | 39.75537 | 4.19667 | 2185 ft | 150 kts | 7° |
| 2026-04-16 15:08 | 39.76527 | 4.19870 | 2017 ft | 138 kts | 6° |
| 2026-04-16 15:08 | 39.77462 | 4.20061 | 1826 ft | 135 kts | 6° |
| 2026-04-16 15:08 | 39.78379 | 4.20249 | 1643 ft | 132 kts | 6° |
| 2026-04-16 15:09 | 39.79288 | 4.20435 | 1463 ft | 133 kts | 6° |
| 2026-04-16 15:09 | 39.80203 | 4.20622 | 1284 ft | 133 kts | 6° |
| 2026-04-16 15:09 | 39.81111 | 4.20808 | 1114 ft | 131 kts | 6° |
| 2026-04-16 15:09 | 39.82011 | 4.20993 | 937 ft | 130 kts | 7° |
| 2026-04-16 15:10 | 39.82905 | 4.21177 | 765 ft | 131 kts | 8° |
| 2026-04-16 15:10 | 39.83810 | 4.21362 | 596 ft | 131 kts | 9° |
| 2026-04-16 15:10 | 39.84704 | 4.21543 | 411 ft | 130 kts | 9° |
| 2026-04-16 15:10 | 39.85581 | 4.21720 | 296 ft | 119 kts | 8° |
| 2026-04-16 15:11 | 39.86262 | 4.21862 | 302 ft | 75 kts | 8° |
| 2026-04-16 15:11 | 39.86602 | 4.21930 | 304 ft | 31 kts | 12° |
| 2026-04-16 15:11 | 39.86745 | 4.21982 | 304 ft | 21 kts | 25° |
| 2026-04-16 15:11 | 39.86866 | 4.22090 | 299 ft | 20 kts | 38° |
| 2026-04-16 15:12 | 39.86932 | 4.22170 | 300 ft | 10 kts | 65° |
| 2026-04-16 15:12 | 39.86935 | 4.22190 | 300 ft | 0 kts | 88° |
| 2026-04-16 15:12 | 39.86935 | 4.22196 | 300 ft | 1 kts | 88° |
| 2026-04-16 15:13 | 39.86935 | 4.22197 | 300 ft | 0 kts | 88° |
| 2026-04-16 15:13 | 39.86933 | 4.22213 | 299 ft | 2 kts | 104° |
| 2026-04-16 15:13 | 39.86930 | 4.22218 | 299 ft | 2 kts | 123° |
| 2026-04-16 15:13 | 39.86913 | 4.22232 | 300 ft | 2 kts | 160° |
| 2026-04-16 15:14 | 39.86880 | 4.22231 | 299 ft | 8 kts | 189° |
| 2026-04-16 15:14 | 39.86824 | 4.22220 | 298 ft | 9 kts | 189° |
| 2026-04-16 15:14 | 39.86721 | 4.22197 | 297 ft | 17 kts | 189° |
| 2026-04-16 15:14 | 39.86614 | 4.22178 | 295 ft | 14 kts | 189° |
| 2026-04-16 15:15 | 39.86557 | 4.22176 | 294 ft | 0 kts | 156° |
| 2026-04-16 15:15 | 39.86556 | 4.22176 | 294 ft | 0 kts | 155° |
| 2026-04-16 15:15 | 39.86555 | 4.22178 | 294 ft | 3 kts | 147° |
| 2026-04-16 15:15 | 39.86541 | 4.22247 | 292 ft | 10 kts | 99° |
| 2026-04-16 15:16 | 39.86510 | 4.22324 | 292 ft | 7 kts | 157° |
| 2026-04-16 15:16 | 39.86474 | 4.22345 | 289 ft | 6 kts | 104° |
| 2026-04-16 15:16 | 39.86469 | 4.22390 | 286 ft | 3 kts | 99° |
| 2026-04-16 15:16 | 39.86468 | 4.22399 | 286 ft | 0 kts | 99° |